createdAt,value
2022-12-28T00:01:35.284Z,7.10
2022-12-28T00:05:47.637Z,5.35
2022-12-28T00:09:59.928Z,5.50
2022-12-28T00:14:12.274Z,3.78
2022-12-28T00:18:24.782Z,4.35
2022-12-28T00:22:47.118Z,5.47
2022-12-28T00:26:59.425Z,4.00
2022-12-28T00:31:11.898Z,7.13
2022-12-28T00:35:24.239Z,4.78
2022-12-28T00:39:36.526Z,6.13
2022-12-28T00:43:48.929Z,3.50
2022-12-28T00:48:01.198Z,2.97
2022-12-28T00:52:23.465Z,2.83
2022-12-28T00:56:35.812Z,6.38
2022-12-28T01:00:50.065Z,2.78
2022-12-28T01:05:02.340Z,5.45
2022-12-28T01:09:14.689Z,4.93
2022-12-28T01:13:26.971Z,3.25
2022-12-28T01:17:39.938Z,6.22
2022-12-28T01:21:52.928Z,3.35
2022-12-28T01:26:05.869Z,2.50
2022-12-28T01:30:18.377Z,2.85
2022-12-28T01:34:30.953Z,3.03
2022-12-28T01:38:56.028Z,2.88
2022-12-28T01:43:15.005Z,3.20
2022-12-28T01:47:42.371Z,3.58
2022-12-28T01:52:14.909Z,3.40
2022-12-28T01:56:28.554Z,3.30
2022-12-28T02:00:41.804Z,3.03
2022-12-28T02:04:54.306Z,4.95
2022-12-28T02:09:22.665Z,2.20
2022-12-28T02:13:35.282Z,3.47
2022-12-28T02:17:47.801Z,2.40
2022-12-28T02:22:25.261Z,1.70
2022-12-28T02:27:11.737Z,3.08
2022-12-28T02:31:51.326Z,3.15
2022-12-28T02:36:18.894Z,2.58
2022-12-28T02:40:46.258Z,1.50
2022-12-28T02:45:17.143Z,1.80
2022-12-28T02:49:47.926Z,2.05
2022-12-28T02:54:51.200Z,3.30
2022-12-28T02:59:13.826Z,1.50
2022-12-28T03:04:04.306Z,1.98
2022-12-28T03:08:22.316Z,1.40
2022-12-28T03:13:06.014Z,1.95
2022-12-28T03:17:48.851Z,1.50
2022-12-28T03:22:19.997Z,2.15
2022-12-28T03:26:52.738Z,3.15
2022-12-28T03:31:10.163Z,1.48
2022-12-28T03:35:28.356Z,1.17
2022-12-28T03:39:51.886Z,1.27
2022-12-28T03:44:11.732Z,1.05
2022-12-28T03:48:28.005Z,1.42
2022-12-28T03:52:40.360Z,1.23
2022-12-28T03:57:02.515Z,1.10
2022-12-28T04:01:15.800Z,1.17
2022-12-28T04:05:28.202Z,0.95
2022-12-28T04:09:40.502Z,0.93
2022-12-28T04:13:52.783Z,2.05
2022-12-28T04:18:05.548Z,1.40
2022-12-28T04:22:28.194Z,4.13
2022-12-28T04:26:40.475Z,1.17
2022-12-28T04:30:52.893Z,2.17
2022-12-28T04:35:05.505Z,0.95
2022-12-28T04:39:17.807Z,1.05
2022-12-28T04:43:31.786Z,0.80
2022-12-28T04:47:44.073Z,1.23
2022-12-28T04:51:56.388Z,0.80
2022-12-28T04:56:10.099Z,0.65
2022-12-28T05:00:32.533Z,0.70
2022-12-28T05:04:44.837Z,0.60
2022-12-28T05:08:58.352Z,1.20
2022-12-28T05:13:10.616Z,1.10
2022-12-28T05:17:23.005Z,1.90
2022-12-28T05:21:35.346Z,0.65
2022-12-28T05:25:54.069Z,1.58
2022-12-28T05:30:07.122Z,0.73
2022-12-28T05:34:19.503Z,0.70
2022-12-28T05:38:32.320Z,0.50
2022-12-28T05:42:51.111Z,0.70
2022-12-28T05:51:19.259Z,0.40
2022-12-28T05:55:32.089Z,0.75
2022-12-28T05:59:44.409Z,2.28
2022-12-28T06:04:02.270Z,0.77
2022-12-28T06:08:19.443Z,0.73
2022-12-28T06:12:34.749Z,0.60
2022-12-28T06:16:47.486Z,0.50
2022-12-28T06:21:12.327Z,0.70
2022-12-28T06:25:24.638Z,0.57
2022-12-28T06:29:38.236Z,0.90
2022-12-28T06:33:54.565Z,0.68
2022-12-28T06:38:06.806Z,1.42
2022-12-28T06:42:29.058Z,0.60
2022-12-28T06:46:41.396Z,0.70
2022-12-28T06:50:58.098Z,1.00
2022-12-28T06:55:10.661Z,0.70
2022-12-28T06:59:23.011Z,0.90
2022-12-28T07:03:35.529Z,1.23
2022-12-28T07:07:47.805Z,0.80
2022-12-28T07:12:00.092Z,1.00
2022-12-28T07:16:15.793Z,0.80
2022-12-28T07:20:28.535Z,0.70
2022-12-28T07:24:40.820Z,0.70
2022-12-28T07:28:55.321Z,0.75
2022-12-28T07:33:07.587Z,2.33
2022-12-28T07:37:19.903Z,0.80
2022-12-28T07:41:34.199Z,0.80
2022-12-28T07:45:46.505Z,0.70
2022-12-28T07:49:58.809Z,0.70
2022-12-28T07:54:11.092Z,0.60
2022-12-28T07:58:23.997Z,0.88
2022-12-28T08:02:36.312Z,0.68
